createdAt,value
2018-05-29T00:02:07.036Z,82.45
2018-05-29T00:04:34.541Z,82.52
2018-05-29T00:07:02.094Z,82.53
2018-05-29T00:09:29.585Z,82.66
2018-05-29T00:11:57.067Z,82.55
2018-05-29T00:14:24.596Z,82.73
2018-05-29T00:16:52.078Z,82.54
2018-05-29T00:19:19.587Z,82.58
2018-05-29T00:21:47.170Z,82.83
2018-05-29T00:24:14.633Z,83.09
2018-05-29T00:26:42.135Z,83.28
2018-05-29T00:29:11.159Z,83.39
2018-05-29T00:31:38.708Z,83.43
2018-05-29T00:34:06.187Z,83.41
2018-05-29T00:36:33.677Z,83.07
2018-05-29T00:39:01.174Z,83.00
2018-05-29T00:41:28.670Z,83.29
2018-05-29T00:43:56.161Z,83.29
2018-05-29T00:46:23.672Z,83.62
2018-05-29T00:48:51.239Z,83.84
2018-05-29T00:51:18.730Z,83.80
2018-05-29T00:53:46.259Z,83.68
2018-05-29T00:56:13.758Z,83.86
2018-05-29T00:58:41.250Z,83.96
2018-05-29T01:01:08.733Z,84.21
2018-05-29T01:03:36.255Z,84.52
2018-05-29T01:06:03.821Z,84.73
2018-05-29T01:08:31.375Z,85.08
2018-05-29T01:10:58.941Z,85.25
2018-05-29T01:13:26.415Z,85.37
2018-05-29T01:15:53.888Z,85.52
2018-05-29T01:18:21.365Z,85.50
2018-05-29T01:20:48.878Z,85.47
2018-05-29T01:23:16.363Z,85.58
2018-05-29T01:25:43.851Z,85.67
2018-05-29T01:28:11.357Z,85.79
2018-05-29T01:30:38.867Z,85.85
2018-05-29T01:33:06.401Z,85.94
2018-05-29T01:35:33.831Z,86.10
2018-05-29T01:38:01.310Z,86.10
2018-05-29T01:40:28.802Z,86.17
2018-05-29T01:42:56.295Z,86.15
2018-05-29T01:45:23.793Z,86.15
2018-05-29T01:47:51.315Z,86.27
2018-05-29T01:50:18.831Z,86.39
2018-05-29T01:52:46.334Z,86.45
2018-05-29T01:55:13.812Z,86.52
2018-05-29T01:57:41.293Z,86.69
2018-05-29T02:00:08.807Z,86.91
2018-05-29T02:02:36.282Z,86.91
2018-05-29T02:05:03.823Z,86.97
2018-05-29T02:07:31.301Z,87.19
2018-05-29T02:09:58.826Z,87.25
2018-05-29T02:12:26.316Z,87.18
2018-05-29T02:14:53.800Z,86.93
2018-05-29T02:17:21.292Z,86.57
2018-05-29T02:19:48.787Z,86.38
2018-05-29T02:22:17.177Z,86.25
2018-05-29T02:24:44.679Z,86.38
2018-05-29T02:27:12.158Z,86.70
2018-05-29T02:29:39.638Z,86.81
2018-05-29T02:32:07.121Z,87.13
2018-05-29T02:34:34.628Z,87.32
2018-05-29T02:37:02.116Z,87.50
2018-05-29T02:39:29.597Z,87.62
2018-05-29T02:41:57.102Z,87.73
2018-05-29T02:44:24.585Z,87.50
2018-05-29T02:46:52.081Z,87.57
2018-05-29T02:49:19.580Z,87.79
2018-05-29T02:51:47.104Z,88.05
2018-05-29T02:54:14.574Z,88.22
2018-05-29T02:56:42.061Z,88.49
2018-05-29T02:59:09.576Z,88.50
2018-05-29T03:01:38.341Z,88.41
2018-05-29T03:04:05.853Z,88.30
2018-05-29T03:06:34.730Z,88.06
2018-05-29T03:09:02.443Z,87.91
2018-05-29T03:11:31.253Z,87.79
2018-05-29T03:13:58.730Z,87.44
2018-05-29T03:16:26.213Z,87.32
2018-05-29T03:18:54.328Z,87.19
2018-05-29T03:21:21.860Z,86.95
2018-05-29T03:23:50.053Z,86.77
2018-05-29T03:26:18.905Z,86.66
2018-05-29T03:28:48.178Z,86.59
2018-05-29T03:31:15.948Z,86.54
2018-05-29T03:33:43.505Z,86.44
2018-05-29T03:36:10.982Z,86.06
2018-05-29T03:38:38.499Z,85.70
2018-05-29T03:41:05.977Z,85.53
2018-05-29T03:43:33.995Z,85.44
2018-05-29T03:46:01.470Z,85.08
2018-05-29T03:48:28.962Z,85.01
2018-05-29T03:50:56.458Z,84.43
2018-05-29T03:53:23.958Z,84.14
2018-05-29T03:55:52.977Z,83.71
2018-05-29T03:58:20.491Z,83.50
2018-05-29T04:00:47.978Z,83.22
2018-05-29T04:03:15.451Z,83.08
2018-05-29T04:05:42.933Z,82.94
2018-05-29T04:08:10.488Z,82.53
2018-05-29T04:10:38.855Z,81.80
2018-05-29T04:13:06.351Z,81.21
2018-05-29T04:15:33.885Z,80.88
2018-05-29T04:18:01.376Z,80.43
2018-05-29T04:20:28.865Z,80.16
2018-05-29T04:22:56.351Z,79.75
2018-05-29T04:25:23.859Z,79.23
2018-05-29T04:27:51.422Z,78.09
2018-05-29T04:30:18.947Z,77.91
2018-05-29T04:32:46.442Z,77.53
2018-05-29T04:35:13.925Z,77.42
2018-05-29T04:37:41.415Z,77.02
2018-05-29T04:40:08.942Z,76.86
2018-05-29T04:42:36.445Z,76.41
2018-05-29T04:45:03.941Z,75.93
2018-05-29T04:47:31.424Z,75.55
2018-05-29T04:49:58.983Z,74.87
2018-05-29T04:52:26.479Z,74.44
2018-05-29T04:54:53.974Z,73.96
2018-05-29T04:57:21.453Z,72.24
2018-05-29T04:59:48.958Z,71.57
2018-05-29T05:02:16.438Z,71.21
2018-05-29T05:04:43.905Z,71.03
2018-05-29T05:07:11.381Z,70.21
2018-05-29T05:09:38.853Z,69.33
2018-05-29T05:12:06.302Z,68.72
2018-05-29T05:14:33.773Z,68.46
2018-05-29T05:17:01.309Z,68.45
2018-05-29T05:19:28.868Z,68.16
2018-05-29T05:21:56.370Z,68.22
2018-05-29T05:24:23.843Z,67.94
2018-05-29T05:26:51.357Z,67.85
2018-05-29T05:29:18.842Z,67.74
2018-05-29T05:31:46.340Z,67.64
2018-05-29T05:34:13.805Z,67.22
2018-05-29T05:36:41.358Z,66.73
2018-05-29T05:39:08.834Z,66.57
2018-05-29T05:41:36.293Z,65.85
2018-05-29T05:44:03.796Z,65.04
2018-05-29T05:46:31.276Z,64.96
2018-05-29T05:48:58.761Z,64.40
2018-05-29T05:51:26.237Z,63.97
2018-05-29T05:53:53.698Z,63.30
2018-05-29T05:56:21.155Z,62.50
2018-05-29T05:58:48.627Z,62.49
2018-05-29T06:01:16.081Z,62.24
2018-05-29T06:03:43.533Z,62.22
2018-05-29T06:06:11.010Z,61.92
2018-05-29T06:08:42.174Z,61.51
2018-05-29T06:11:12.295Z,61.57
2018-05-29T06:13:39.810Z,61.37
2018-05-29T06:16:07.310Z,60.89
2018-05-29T06:18:34.779Z,61.16
2018-05-29T06:21:02.259Z,61.20
2018-05-29T06:23:29.722Z,60.87
2018-05-29T06:25:57.228Z,60.19
2018-05-29T06:28:24.707Z,58.73
2018-05-29T06:30:52.184Z,58.93
2018-05-29T06:33:19.652Z,58.71
2018-05-29T06:35:47.130Z,58.51
2018-05-29T06:38:14.620Z,58.59
2018-05-29T06:40:42.113Z,58.60
2018-05-29T06:43:11.084Z,58.85
2018-05-29T06:45:38.590Z,59.56
2018-05-29T06:48:06.131Z,59.24
2018-05-29T06:50:33.607Z,58.65
2018-05-29T06:53:01.072Z,58.36
2018-05-29T06:55:28.567Z,58.40
2018-05-29T06:57:56.094Z,57.99
2018-05-29T07:00:23.570Z,57.67
2018-05-29T07:02:51.063Z,57.60
2018-05-29T07:05:18.575Z,57.67
2018-05-29T07:07:46.099Z,57.43
2018-05-29T07:10:13.615Z,57.10
2018-05-29T07:12:41.136Z,56.83
2018-05-29T07:15:08.615Z,57.00
2018-05-29T07:17:36.132Z,57.24
2018-05-29T07:20:03.647Z,56.82
2018-05-29T07:22:31.153Z,56.71
2018-05-29T07:24:58.695Z,55.85
2018-05-29T07:27:26.188Z,56.29
2018-05-29T07:29:53.691Z,56.22
2018-05-29T07:32:21.200Z,56.02
2018-05-29T07:34:48.680Z,55.95
2018-05-29T07:37:16.174Z,55.70
2018-05-29T07:39:43.698Z,55.00
2018-05-29T07:42:11.179Z,55.01
2018-05-29T07:44:40.191Z,55.04
2018-05-29T07:47:11.086Z,54.69
2018-05-29T07:49:39.560Z,54.46
2018-05-29T07:52:07.040Z,54.52
2018-05-29T07:54:34.564Z,54.26
2018-05-29T07:57:02.044Z,53.80
2018-05-29T07:59:29.516Z,53.00
2018-05-29T08:01:57.067Z,52.67
2018-05-29T08:04:24.634Z,52.97
2018-05-29T08:06:52.195Z,53.13
2018-05-29T08:09:19.714Z,52.87
2018-05-29T08:11:47.227Z,52.42
2018-05-29T08:14:14.733Z,51.89
2018-05-29T08:16:42.232Z,51.31
2018-05-29T08:19:09.732Z,50.87
2018-05-29T08:21:37.229Z,50.67
2018-05-29T08:24:04.749Z,50.64
2018-05-29T08:26:32.228Z,50.63
2018-05-29T08:28:59.718Z,50.06
2018-05-29T08:31:27.189Z,50.15
2018-05-29T08:33:54.697Z,49.81
2018-05-29T08:36:22.200Z,49.65
2018-05-29T08:38:49.744Z,49.64
2018-05-29T08:41:17.269Z,48.92
2018-05-29T08:43:44.761Z,49.28
2018-05-29T08:46:12.240Z,48.79
2018-05-29T08:48:39.757Z,48.42
2018-05-29T08:51:07.303Z,47.87
2018-05-29T08:53:34.808Z,48.05
2018-05-29T08:56:02.321Z,47.71
2018-05-29T08:58:29.894Z,47.36
2018-05-29T09:00:57.366Z,48.22
2018-05-29T09:03:24.856Z,49.02
2018-05-29T09:05:52.353Z,48.92
2018-05-29T09:08:20.206Z,48.04
2018-05-29T09:10:47.708Z,47.86
2018-05-29T09:13:15.981Z,47.60
2018-05-29T09:15:43.445Z,47.12
2018-05-29T09:18:11.021Z,46.99
2018-05-29T09:20:38.539Z,46.88
2018-05-29T09:23:06.672Z,46.88
2018-05-29T09:25:34.154Z,46.54
2018-05-29T09:28:01.685Z,46.72
2018-05-29T09:30:30.433Z,46.51
2018-05-29T09:32:57.945Z,46.38
2018-05-29T09:35:25.459Z,45.82
2018-05-29T09:37:52.975Z,46.10
2018-05-29T09:40:20.466Z,46.21
2018-05-29T09:42:47.958Z,46.06
2018-05-29T09:45:15.476Z,46.57
2018-05-29T09:47:42.958Z,46.22
2018-05-29T09:50:10.431Z,45.66
2018-05-29T09:52:37.911Z,45.31
2018-05-29T09:55:05.435Z,45.77
2018-05-29T09:57:32.955Z,46.06
2018-05-29T10:00:00.426Z,46.77
2018-05-29T10:02:27.949Z,47.04
2018-05-29T10:04:56.031Z,46.48
2018-05-29T10:07:23.521Z,45.82
2018-05-29T10:09:51.062Z,45.79
2018-05-29T10:12:18.543Z,45.96
2018-05-29T10:14:46.015Z,45.67
2018-05-29T10:17:13.513Z,45.03
2018-05-29T10:19:41.000Z,44.97
2018-05-29T10:22:08.490Z,44.78
2018-05-29T10:24:36.005Z,43.75
2018-05-29T10:27:03.484Z,44.62
2018-05-29T10:29:30.995Z,44.15
2018-05-29T10:31:58.540Z,43.33
2018-05-29T10:34:26.045Z,42.62
2018-05-29T10:36:53.585Z,42.69
2018-05-29T10:39:21.127Z,42.42
2018-05-29T10:41:48.621Z,42.15
2018-05-29T10:44:16.084Z,42.07
2018-05-29T10:46:43.664Z,42.63
2018-05-29T10:49:11.227Z,41.95
2018-05-29T10:51:38.752Z,41.48
2018-05-29T10:54:06.254Z,40.67
2018-05-29T10:56:33.744Z,40.11
2018-05-29T10:59:01.260Z,39.86
2018-05-29T11:01:28.740Z,38.88
2018-05-29T11:03:56.245Z,38.81
2018-05-29T11:06:24.505Z,38.43
2018-05-29T11:09:04.223Z,37.28
2018-05-29T11:11:35.131Z,36.40
2018-05-29T11:14:11.214Z,36.35
2018-05-29T11:16:38.828Z,36.08
2018-05-29T11:21:48.729Z,36.19
2018-05-29T11:24:16.395Z,36.49
2018-05-29T11:26:55.328Z,35.22
2018-05-29T11:29:23.759Z,34.58
2018-05-29T11:31:55.759Z,34.57
2018-05-29T11:34:24.888Z,34.56
2018-05-29T11:36:53.532Z,33.61
2018-05-29T11:39:20.986Z,34.01
2018-05-29T11:41:48.467Z,34.19
2018-05-29T11:44:18.726Z,34.57
2018-05-29T11:46:46.661Z,34.19
2018-05-29T11:49:17.172Z,34.96
2018-05-29T11:51:44.651Z,35.16
2018-05-29T11:54:19.600Z,34.52
2018-05-29T11:56:50.422Z,34.86
2018-05-29T11:59:22.945Z,34.57
2018-05-29T12:01:52.023Z,35.05
2018-05-29T12:04:19.531Z,35.34
2018-05-29T12:06:47.041Z,35.23
2018-05-29T12:09:14.496Z,35.44
2018-05-29T12:11:42.009Z,35.16
2018-05-29T12:14:09.484Z,35.87
2018-05-29T12:16:36.939Z,35.87
2018-05-29T12:19:04.407Z,35.41
2018-05-29T12:21:31.896Z,35.17
2018-05-29T12:23:59.365Z,34.45
2018-05-29T12:26:26.853Z,32.88
2018-05-29T12:28:54.421Z,31.68
2018-05-29T12:31:21.889Z,31.96
2018-05-29T12:33:49.367Z,33.02
2018-05-29T12:36:16.918Z,34.27
2018-05-29T12:38:44.384Z,34.93
2018-05-29T12:41:11.853Z,34.68
2018-05-29T12:43:39.507Z,34.46
2018-05-29T12:46:07.031Z,34.87
2018-05-29T12:48:35.758Z,34.95
2018-05-29T12:51:03.643Z,34.04
2018-05-29T12:53:31.129Z,32.99
2018-05-29T12:55:58.587Z,32.64
2018-05-29T12:58:26.088Z,32.05
2018-05-29T13:00:53.564Z,31.01
2018-05-29T13:03:21.086Z,31.39
2018-05-29T13:05:48.575Z,31.46
2018-05-29T13:08:16.041Z,30.91
2018-05-29T13:10:43.529Z,30.84
2018-05-29T13:13:11.048Z,29.60
2018-05-29T13:15:38.503Z,30.18
2018-05-29T13:18:05.959Z,31.25
2018-05-29T13:20:33.464Z,30.76
2018-05-29T13:23:00.936Z,30.16
2018-05-29T13:25:28.400Z,29.75
2018-05-29T13:27:55.886Z,30.02
2018-05-29T13:30:23.349Z,30.16
2018-05-29T13:32:52.629Z,31.08
2018-05-29T13:35:20.279Z,31.59
2018-05-29T13:37:47.780Z,31.11
2018-05-29T13:40:15.463Z,30.48
2018-05-29T13:42:42.991Z,29.13
2018-05-29T13:45:10.545Z,27.57
2018-05-29T13:47:38.090Z,28.99
2018-05-29T13:50:05.578Z,28.80
2018-05-29T13:52:33.055Z,28.62
2018-05-29T13:55:00.511Z,27.70
2018-05-29T13:57:28.279Z,27.36
2018-05-29T13:59:55.753Z,27.40
2018-05-29T14:02:23.234Z,27.26
2018-05-29T14:04:50.684Z,27.88
2018-05-29T14:07:18.162Z,28.56
2018-05-29T14:09:45.702Z,29.28
2018-05-29T14:12:13.238Z,28.80
2018-05-29T14:14:40.721Z,27.03
2018-05-29T14:17:08.179Z,25.98
2018-05-29T14:19:35.685Z,24.71
2018-05-29T14:22:03.191Z,23.94
2018-05-29T14:24:30.660Z,24.55
2018-05-29T14:26:58.152Z,26.35
2018-05-29T14:29:25.620Z,27.69
2018-05-29T14:31:53.096Z,26.98
2018-05-29T14:34:21.076Z,25.80
2018-05-29T14:36:48.559Z,24.44
2018-05-29T14:39:16.035Z,22.73
2018-05-29T14:41:43.512Z,22.06
2018-05-29T14:44:11.013Z,22.18
2018-05-29T14:46:38.496Z,21.26
2018-05-29T14:49:05.974Z,20.16
2018-05-29T14:51:33.428Z,19.05
2018-05-29T14:54:00.985Z,18.75
2018-05-29T14:56:28.462Z,19.32
2018-05-29T14:58:56.036Z,21.78
2018-05-29T15:01:23.560Z,24.40
2018-05-29T15:03:51.151Z,26.70
2018-05-29T15:06:19.428Z,28.05
2018-05-29T15:08:46.989Z,29.24
2018-05-29T15:11:14.531Z,30.08
2018-05-29T15:13:42.134Z,30.15
2018-05-29T15:16:09.624Z,28.36
2018-05-29T15:18:37.133Z,26.23
2018-05-29T15:21:04.599Z,23.96
2018-05-29T15:23:32.087Z,22.71
2018-05-29T15:25:59.566Z,23.67
2018-05-29T15:28:27.060Z,23.14
2018-05-29T15:30:57.111Z,21.47
2018-05-29T15:33:24.680Z,21.19
2018-05-29T15:35:52.171Z,20.22
2018-05-29T15:38:19.680Z,21.03
2018-05-29T15:40:47.160Z,22.91
2018-05-29T15:43:14.756Z,24.06
2018-05-29T15:45:42.276Z,25.48
2018-05-29T15:48:09.733Z,26.03
2018-05-29T15:50:37.221Z,27.61
2018-05-29T15:53:04.751Z,28.62
2018-05-29T15:55:32.236Z,29.29
2018-05-29T15:57:59.729Z,30.21
2018-05-29T16:00:27.231Z,30.53
2018-05-29T16:02:54.788Z,30.89
2018-05-29T16:05:22.249Z,31.11
2018-05-29T16:07:49.773Z,31.56
2018-05-29T16:10:17.257Z,31.90
2018-05-29T16:12:44.840Z,32.78
2018-05-29T16:15:19.283Z,32.75
2018-05-29T16:17:46.736Z,33.37
2018-05-29T16:20:27.955Z,33.84
2018-05-29T16:35:50.551Z,37.10
2018-05-29T16:38:18.052Z,37.37
2018-05-29T16:40:45.627Z,37.36
2018-05-29T16:43:13.124Z,37.69
2018-05-29T16:45:40.609Z,38.07
2018-05-29T16:48:09.633Z,38.25
2018-05-29T16:50:37.135Z,38.55
2018-05-29T16:56:00.660Z,38.97
2018-05-29T16:58:28.113Z,39.22
2018-05-29T17:00:55.607Z,39.41
2018-05-29T17:03:23.177Z,39.75
2018-05-29T17:05:51.281Z,40.22
2018-05-29T17:08:18.837Z,40.58
2018-05-29T17:10:46.328Z,40.68
2018-05-29T17:13:13.792Z,41.18
2018-05-29T17:23:23.308Z,44.08
2018-05-29T17:25:52.952Z,47.23
2018-05-29T17:28:20.739Z,50.01
2018-05-29T17:30:48.216Z,51.85
2018-05-29T17:33:17.330Z,52.44
2018-05-29T17:35:44.816Z,50.71
2018-05-29T17:38:12.408Z,49.81
2018-05-29T17:40:40.319Z,48.75
2018-05-29T17:43:07.904Z,47.69
2018-05-29T17:45:35.621Z,47.02
2018-05-29T17:48:03.317Z,46.22
2018-05-29T17:50:30.846Z,47.12
2018-05-29T17:52:58.307Z,48.36
2018-05-29T17:55:26.081Z,48.97
2018-05-29T17:57:53.907Z,51.17
2018-05-29T18:00:26.085Z,51.62
2018-05-29T18:02:53.721Z,51.90
2018-05-29T18:05:21.522Z,51.78
2018-05-29T18:07:51.147Z,51.45
2018-05-29T18:10:18.693Z,51.56
2018-05-29T18:12:46.409Z,51.84
2018-05-29T18:15:14.078Z,52.09
2018-05-29T18:17:41.601Z,52.44
2018-05-29T18:20:09.167Z,54.09
2018-05-29T18:22:37.749Z,56.12
2018-05-29T18:25:06.095Z,57.68
2018-05-29T18:27:33.741Z,59.43
2018-05-29T18:30:04.264Z,60.80
2018-05-29T18:32:31.826Z,63.21
2018-05-29T18:35:01.284Z,65.63
2018-05-29T18:37:30.349Z,66.42
2018-05-29T18:40:00.142Z,66.22
2018-05-29T18:42:28.948Z,66.72
2018-05-29T18:44:57.262Z,67.47
2018-05-29T18:47:26.967Z,66.81
2018-05-29T18:49:56.026Z,67.33
2018-05-29T18:54:56.562Z,66.44
2018-05-29T18:57:27.538Z,65.15
2018-05-29T18:59:55.292Z,66.74
2018-05-29T19:02:22.860Z,66.44
2018-05-29T19:04:51.639Z,65.95
2018-05-29T19:07:19.341Z,66.49
2018-05-29T19:09:46.990Z,67.50
2018-05-29T19:12:14.652Z,67.72
2018-05-29T19:14:42.201Z,67.80
2018-05-29T19:17:09.848Z,68.33
2018-05-29T19:19:37.293Z,68.85
2018-05-29T19:22:04.832Z,69.12
2018-05-29T19:24:32.332Z,69.07
2018-05-29T19:26:59.828Z,69.04
2018-05-29T19:29:27.308Z,68.79
2018-05-29T19:31:54.823Z,69.05
2018-05-29T19:34:22.282Z,69.33
2018-05-29T19:36:49.788Z,69.58
2018-05-29T19:39:17.334Z,69.40
2018-05-29T19:41:46.280Z,69.83
2018-05-29T19:44:13.746Z,70.13
2018-05-29T19:46:41.340Z,70.33
2018-05-29T19:49:08.883Z,70.26
2018-05-29T19:51:36.376Z,70.41
2018-05-29T19:54:05.739Z,69.57
2018-05-29T19:56:34.288Z,69.69
2018-05-29T19:59:01.810Z,68.34
2018-05-29T20:01:29.510Z,68.18
2018-05-29T20:03:57.016Z,68.65
2018-05-29T20:06:25.318Z,68.54
2018-05-29T20:08:53.223Z,68.45
2018-05-29T20:11:20.727Z,68.74
2018-05-29T20:13:48.189Z,68.48
2018-05-29T20:16:15.693Z,67.97
2018-05-29T20:18:43.164Z,67.21
2018-05-29T20:21:10.644Z,66.84
2018-05-29T20:23:38.148Z,66.37
2018-05-29T20:26:05.686Z,65.08
2018-05-29T20:28:33.159Z,64.30
2018-05-29T20:31:00.716Z,63.88
2018-05-29T20:33:28.967Z,64.15
2018-05-29T20:35:56.519Z,64.30
2018-05-29T20:38:23.998Z,64.68
2018-05-29T20:40:51.767Z,64.41
2018-05-29T20:43:19.238Z,64.60
2018-05-29T20:45:46.720Z,64.92
2018-05-29T20:48:15.920Z,65.57
2018-05-29T20:50:43.427Z,65.90
2018-05-29T20:53:10.943Z,66.01
2018-05-29T20:55:41.512Z,66.21
2018-05-29T20:58:09.009Z,66.63
2018-05-29T21:00:36.712Z,66.29
2018-05-29T21:03:04.975Z,65.93
2018-05-29T21:08:20.637Z,65.12
2018-05-29T21:10:48.156Z,65.25
2018-05-29T21:13:15.614Z,65.01
2018-05-29T21:15:45.270Z,65.83
2018-05-29T21:18:14.263Z,67.42
2018-05-29T21:20:41.893Z,68.07
2018-05-29T21:23:09.380Z,68.62
2018-05-29T21:25:36.887Z,68.87
2018-05-29T21:28:04.350Z,70.05
2018-05-29T21:30:31.902Z,69.83
2018-05-29T21:32:59.822Z,69.87
2018-05-29T21:35:29.322Z,70.76
2018-05-29T21:37:56.843Z,71.22
2018-05-29T21:40:24.305Z,71.11
2018-05-29T21:42:52.002Z,71.10
2018-05-29T21:45:19.529Z,71.17
2018-05-29T21:47:47.653Z,71.13
2018-05-29T21:50:15.109Z,70.91
2018-05-29T21:52:42.600Z,71.21
2018-05-29T21:55:10.189Z,70.96
2018-05-29T21:57:37.682Z,70.62
2018-05-29T22:00:05.717Z,70.45
2018-05-29T22:02:33.378Z,70.91
2018-05-29T22:05:00.909Z,71.27
2018-05-29T22:07:28.415Z,71.76
2018-05-29T22:09:55.876Z,72.33
2018-05-29T22:12:23.360Z,72.66
2018-05-29T22:14:50.884Z,72.85
2018-05-29T22:17:18.487Z,73.19
2018-05-29T22:19:46.015Z,72.86
2018-05-29T22:22:13.507Z,72.99
2018-05-29T22:24:41.051Z,72.57
2018-05-29T22:27:08.578Z,72.93
2018-05-29T22:29:36.071Z,73.01
2018-05-29T22:32:03.668Z,73.30
2018-05-29T22:34:31.160Z,73.71
2018-05-29T22:36:58.711Z,73.63
2018-05-29T22:39:26.203Z,73.63
2018-05-29T22:41:55.052Z,74.06
2018-05-29T22:44:24.855Z,74.31
2018-05-29T22:46:52.424Z,74.30
2018-05-29T22:49:20.549Z,74.51
2018-05-29T22:51:48.916Z,74.42
2018-05-29T22:54:16.486Z,74.71
2018-05-29T22:56:47.136Z,74.70
2018-05-29T22:59:18.364Z,73.99
2018-05-29T23:01:46.491Z,74.06
2018-05-29T23:04:14.019Z,74.31
2018-05-29T23:06:41.527Z,74.09
2018-05-29T23:09:09.193Z,73.99
2018-05-29T23:11:36.871Z,73.89
2018-05-29T23:14:04.710Z,73.25
2018-05-29T23:16:32.207Z,73.41
2018-05-29T23:18:59.772Z,73.54
2018-05-29T23:21:27.273Z,73.71
2018-05-29T23:23:54.928Z,73.52
2018-05-29T23:26:22.446Z,73.62
2018-05-29T23:28:50.059Z,73.57
2018-05-29T23:31:17.582Z,73.52
2018-05-29T23:33:45.087Z,73.35
2018-05-29T23:36:12.643Z,73.45
2018-05-29T23:38:40.149Z,73.59
2018-05-29T23:41:07.650Z,73.59
2018-05-29T23:43:35.138Z,73.81
2018-05-29T23:46:02.664Z,74.05
2018-05-29T23:48:31.016Z,73.62
2018-05-29T23:50:59.450Z,73.65
2018-05-29T23:53:26.931Z,73.63
2018-05-29T23:55:54.510Z,73.62
2018-05-29T23:58:22.013Z,73.23
